sensor_id;sensor_type;location;lat;lon;timestamp;temperature;humidity
17437;DHT22;73152;52.198;5.422;2023-10-08T00:01:08;20.80;75.60
17437;DHT22;73152;52.198;5.422;2023-10-08T00:03:39;20.50;76.70
17437;DHT22;73152;52.198;5.422;2023-10-08T00:06:14;20.30;77.50
17437;DHT22;73152;52.198;5.422;2023-10-08T00:08:48;20.30;77.80
17437;DHT22;73152;52.198;5.422;2023-10-08T00:11:25;20.30;77.70
17437;DHT22;73152;52.198;5.422;2023-10-08T00:13:54;20.20;78.50
17437;DHT22;73152;52.198;5.422;2023-10-08T00:16:26;20.30;78.00
17437;DHT22;73152;52.198;5.422;2023-10-08T00:18:59;20.20;78.60
17437;DHT22;73152;52.198;5.422;2023-10-08T00:21:35;20.30;78.50
17437;DHT22;73152;52.198;5.422;2023-10-08T00:24:08;20.40;78.30
17437;DHT22;73152;52.198;5.422;2023-10-08T00:26:38;20.20;78.70
17437;DHT22;73152;52.198;5.422;2023-10-08T00:29:10;20.50;78.00
17437;DHT22;73152;52.198;5.422;2023-10-08T00:31:47;20.50;77.80
17437;DHT22;73152;52.198;5.422;2023-10-08T00:34:18;20.40;78.40
17437;DHT22;73152;52.198;5.422;2023-10-08T00:36:48;20.50;78.10
17437;DHT22;73152;52.198;5.422;2023-10-08T00:39:19;20.50;78.10
17437;DHT22;73152;52.198;5.422;2023-10-08T00:41:52;20.50;78.00
17437;DHT22;73152;52.198;5.422;2023-10-08T00:44:24;20.40;78.40
17437;DHT22;73152;52.198;5.422;2023-10-08T00:46:56;20.30;78.60
17437;DHT22;73152;52.198;5.422;2023-10-08T00:49:27;20.50;78.10
17437;DHT22;73152;52.198;5.422;2023-10-08T00:52:14;20.80;77.00
17437;DHT22;73152;52.198;5.422;2023-10-08T00:54:59;21.10;75.80
17437;DHT22;73152;52.198;5.422;2023-10-08T00:57:40;21.40;74.50
17437;DHT22;73152;52.198;5.422;2023-10-08T01:00:14;21.30;74.80
17437;DHT22;73152;52.198;5.422;2023-10-08T01:02:47;21.40;74.20
17437;DHT22;73152;52.198;5.422;2023-10-08T01:05:25;21.60;73.60
17437;DHT22;73152;52.198;5.422;2023-10-08T01:08:11;21.80;72.10
17437;DHT22;73152;52.198;5.422;2023-10-08T01:10:46;22.00;71.40
17437;DHT22;73152;52.198;5.422;2023-10-08T01:13:24;21.80;72.10
17437;DHT22;73152;52.198;5.422;2023-10-08T01:15:53;21.50;74.00
17437;DHT22;73152;52.198;5.422;2023-10-08T01:18:23;21.30;74.90
17437;DHT22;73152;52.198;5.422;2023-10-08T01:20:57;20.70;77.00
17437;DHT22;73152;52.198;5.422;2023-10-08T01:23:36;20.40;78.10
17437;DHT22;73152;52.198;5.422;2023-10-08T01:26:05;20.30;78.60
17437;DHT22;73152;52.198;5.422;2023-10-08T01:28:40;20.50;78.00
17437;DHT22;73152;52.198;5.422;2023-10-08T01:31:09;20.50;77.90
17437;DHT22;73152;52.198;5.422;2023-10-08T01:33:41;20.30;78.70
17437;DHT22;73152;52.198;5.422;2023-10-08T01:36:15;20.30;78.80
17437;DHT22;73152;52.198;5.422;2023-10-08T01:38:47;20.30;78.50
17437;DHT22;73152;52.198;5.422;2023-10-08T01:41:16;20.30;78.60
17437;DHT22;73152;52.198;5.422;2023-10-08T01:43:52;20.20;78.80
17437;DHT22;73152;52.198;5.422;2023-10-08T01:46:21;20.40;78.30
17437;DHT22;73152;52.198;5.422;2023-10-08T01:48:51;20.20;78.90
17437;DHT22;73152;52.198;5.422;2023-10-08T01:51:26;20.00;79.80
17437;DHT22;73152;52.198;5.422;2023-10-08T01:54:07;19.90;80.20
17437;DHT22;73152;52.198;5.422;2023-10-08T01:56:41;19.90;80.00
17437;DHT22;73152;52.198;5.422;2023-10-08T01:59:11;20.00;79.80
17437;DHT22;73152;52.198;5.422;2023-10-08T02:01:42;20.00;79.60
17437;DHT22;73152;52.198;5.422;2023-10-08T02:04:13;20.30;78.70
17437;DHT22;73152;52.198;5.422;2023-10-08T02:06:42;20.00;79.50
17437;DHT22;73152;52.198;5.422;2023-10-08T02:09:14;20.00;79.60
17437;DHT22;73152;52.198;5.422;2023-10-08T02:11:48;19.90;79.70
17437;DHT22;73152;52.198;5.422;2023-10-08T02:14:19;19.60;80.80
17437;DHT22;73152;52.198;5.422;2023-10-08T02:16:49;19.90;79.90
17437;DHT22;73152;52.198;5.422;2023-10-08T02:19:22;19.80;80.00
17437;DHT22;73152;52.198;5.422;2023-10-08T02:21:53;19.70;80.40
17437;DHT22;73152;52.198;5.422;2023-10-08T02:24:26;19.80;80.00
17437;DHT22;73152;52.198;5.422;2023-10-08T02:26:55;20.00;79.30
17437;DHT22;73152;52.198;5.422;2023-10-08T02:29:26;19.70;80.30
17437;DHT22;73152;52.198;5.422;2023-10-08T02:31:57;19.70;80.20
17437;DHT22;73152;52.198;5.422;2023-10-08T02:34:26;19.80;80.10
17437;DHT22;73152;52.198;5.422;2023-10-08T02:36:56;20.00;79.10
17437;DHT22;73152;52.198;5.422;2023-10-08T02:39:29;20.10;78.70
17437;DHT22;73152;52.198;5.422;2023-10-08T02:41:58;20.10;78.90
17437;DHT22;73152;52.198;5.422;2023-10-08T02:44:28;20.10;78.80
17437;DHT22;73152;52.198;5.422;2023-10-08T02:46:58;20.10;78.40
17437;DHT22;73152;52.198;5.422;2023-10-08T02:49:27;20.00;79.00
17437;DHT22;73152;52.198;5.422;2023-10-08T02:51:58;19.90;79.30
17437;DHT22;73152;52.198;5.422;2023-10-08T02:54:32;19.70;79.80
17437;DHT22;73152;52.198;5.422;2023-10-08T02:57:02;19.90;79.20
17437;DHT22;73152;52.198;5.422;2023-10-08T02:59:36;19.80;79.30
17437;DHT22;73152;52.198;5.422;2023-10-08T03:02:08;20.10;78.50
17437;DHT22;73152;52.198;5.422;2023-10-08T03:04:45;20.10;78.40
17437;DHT22;73152;52.198;5.422;2023-10-08T03:07:17;19.70;79.70
17437;DHT22;73152;52.198;5.422;2023-10-08T03:10:00;19.80;79.50
17437;DHT22;73152;52.198;5.422;2023-10-08T03:12:32;20.10;78.60
17437;DHT22;73152;52.198;5.422;2023-10-08T03:15:02;19.70;79.60
17437;DHT22;73152;52.198;5.422;2023-10-08T03:17:42;19.60;80.40
17437;DHT22;73152;52.198;5.422;2023-10-08T03:20:17;20.20;78.40
17437;DHT22;73152;52.198;5.422;2023-10-08T03:23:09;20.30;77.80
17437;DHT22;73152;52.198;5.422;2023-10-08T03:26:02;20.90;75.50
17437;DHT22;73152;52.198;5.422;2023-10-08T03:28:43;21.10;74.70
17437;DHT22;73152;52.198;5.422;2023-10-08T03:31:23;21.20;74.30
17437;DHT22;73152;52.198;5.422;2023-10-08T03:34:10;21.10;74.70
17437;DHT22;73152;52.198;5.422;2023-10-08T03:36:41;21.10;73.10
17437;DHT22;73152;52.198;5.422;2023-10-08T03:39:13;21.20;72.40
17437;DHT22;73152;52.198;5.422;2023-10-08T03:41:47;21.40;71.00
17437;DHT22;73152;52.198;5.422;2023-10-08T03:44:33;21.30;69.40
17437;DHT22;73152;52.198;5.422;2023-10-08T03:47:03;21.20;70.20
17437;DHT22;73152;52.198;5.422;2023-10-08T03:49:36;20.90;70.20
17437;DHT22;73152;52.198;5.422;2023-10-08T03:52:11;21.20;70.50
17437;DHT22;73152;52.198;5.422;2023-10-08T03:54:41;21.10;69.40
17437;DHT22;73152;52.198;5.422;2023-10-08T03:57:16;20.70;71.10
17437;DHT22;73152;52.198;5.422;2023-10-08T03:59:51;20.40;73.00
17437;DHT22;73152;52.198;5.422;2023-10-08T04:02:24;20.50;70.40
17437;DHT22;73152;52.198;5.422;2023-10-08T04:05:05;21.00;69.10
17437;DHT22;73152;52.198;5.422;2023-10-08T04:07:44;21.00;68.30
17437;DHT22;73152;52.198;5.422;2023-10-08T04:10:27;20.40;69.70
17437;DHT22;73152;52.198;5.422;2023-10-08T04:13:36;21.00;71.00
17437;DHT22;73152;52.198;5.422;2023-10-08T04:16:14;20.80;68.00
17437;DHT22;73152;52.198;5.422;2023-10-08T04:18:46;20.20;70.50
17437;DHT22;73152;52.198;5.422;2023-10-08T04:21:17;20.40;69.80
17437;DHT22;73152;52.198;5.422;2023-10-08T04:23:47;20.40;69.10
17437;DHT22;73152;52.198;5.422;2023-10-08T04:26:19;20.30;71.40
17437;DHT22;73152;52.198;5.422;2023-10-08T04:28:53;20.20;69.70
17437;DHT22;73152;52.198;5.422;2023-10-08T04:31:24;20.30;69.30
17437;DHT22;73152;52.198;5.422;2023-10-08T04:33:54;20.60;69.80
17437;DHT22;73152;52.198;5.422;2023-10-08T04:36:26;19.90;71.40
17437;DHT22;73152;52.198;5.422;2023-10-08T04:38:55;20.20;70.50
17437;DHT22;73152;52.198;5.422;2023-10-08T04:41:30;20.10;70.20
17437;DHT22;73152;52.198;5.422;2023-10-08T04:44:02;19.80;72.70
17437;DHT22;73152;52.198;5.422;2023-10-08T04:46:37;19.60;74.00
17437;DHT22;73152;52.198;5.422;2023-10-08T04:49:17;19.70;72.00
17437;DHT22;73152;52.198;5.422;2023-10-08T04:51:55;19.80;72.40
17437;DHT22;73152;52.198;5.422;2023-10-08T04:54:26;20.20;70.70
17437;DHT22;73152;52.198;5.422;2023-10-08T04:56:58;20.00;72.90
17437;DHT22;73152;52.198;5.422;2023-10-08T04:59:30;20.50;69.50
17437;DHT22;73152;52.198;5.422;2023-10-08T05:02:03;20.60;71.00
17437;DHT22;73152;52.198;5.422;2023-10-08T05:04:59;20.30;70.30
17437;DHT22;73152;52.198;5.422;2023-10-08T05:07:43;19.90;71.70
17437;DHT22;73152;52.198;5.422;2023-10-08T05:10:24;20.00;70.20
17437;DHT22;73152;52.198;5.422;2023-10-08T05:13:11;20.20;72.10
17437;DHT22;73152;52.198;5.422;2023-10-08T05:15:58;20.30;70.20
17437;DHT22;73152;52.198;5.422;2023-10-08T05:18:37;20.40;70.10
17437;DHT22;73152;52.198;5.422;2023-10-08T05:21:38;20.10;70.90
17437;DHT22;73152;52.198;5.422;2023-10-08T05:24:18;20.10;70.60
17437;DHT22;73152;52.198;5.422;2023-10-08T05:26:53;20.10;72.10
17437;DHT22;73152;52.198;5.422;2023-10-08T05:29:47;20.00;71.10
17437;DHT22;73152;52.198;5.422;2023-10-08T05:32:37;19.80;72.30
17437;DHT22;73152;52.198;5.422;2023-10-08T05:35:17;19.90;72.20
17437;DHT22;73152;52.198;5.422;2023-10-08T05:38:11;20.00;70.00
17437;DHT22;73152;52.198;5.422;2023-10-08T05:40:43;20.40;68.40
17437;DHT22;73152;52.198;5.422;2023-10-08T05:43:25;20.10;67.00
17437;DHT22;73152;52.198;5.422;2023-10-08T05:46:15;19.60;70.80
17437;DHT22;73152;52.198;5.422;2023-10-08T05:49:07;19.90;69.60
17437;DHT22;73152;52.198;5.422;2023-10-08T05:51:49;20.00;71.70
17437;DHT22;73152;52.198;5.422;2023-10-08T05:54:39;19.70;68.30
17437;DHT22;73152;52.198;5.422;2023-10-08T05:57:23;20.00;66.10
17437;DHT22;73152;52.198;5.422;2023-10-08T06:00:05;19.70;69.80
17437;DHT22;73152;52.198;5.422;2023-10-08T06:02:47;20.10;66.10
17437;DHT22;73152;52.198;5.422;2023-10-08T06:05:38;19.50;69.30
17437;DHT22;73152;52.198;5.422;2023-10-08T06:08:30;19.50;72.20
17437;DHT22;73152;52.198;5.422;2023-10-08T06:11:15;19.70;68.50
17437;DHT22;73152;52.198;5.422;2023-10-08T06:13:54;20.00;67.10
17437;DHT22;73152;52.198;5.422;2023-10-08T06:16:26;19.80;70.50
17437;DHT22;73152;52.198;5.422;2023-10-08T06:19:07;19.50;68.90
17437;DHT22;73152;52.198;5.422;2023-10-08T06:21:38;19.80;69.50
17437;DHT22;73152;52.198;5.422;2023-10-08T06:24:09;19.60;67.90
17437;DHT22;73152;52.198;5.422;2023-10-08T06:26:42;20.40;67.30
17437;DHT22;73152;52.198;5.422;2023-10-08T06:29:14;20.70;65.50
17437;DHT22;73152;52.198;5.422;2023-10-08T06:31:56;20.60;69.30
17437;DHT22;73152;52.198;5.422;2023-10-08T06:34:28;20.80;68.50
17437;DHT22;73152;52.198;5.422;2023-10-08T06:37:00;21.10;67.60
17437;DHT22;73152;52.198;5.422;2023-10-08T06:39:32;21.20;62.20
17437;DHT22;73152;52.198;5.422;2023-10-08T06:42:14;21.30;66.70
17437;DHT22;73152;52.198;5.422;2023-10-08T06:44:44;21.80;67.10
17437;DHT22;73152;52.198;5.422;2023-10-08T06:47:14;22.20;65.10
17437;DHT22;73152;52.198;5.422;2023-10-08T06:49:44;22.70;65.20
17437;DHT22;73152;52.198;5.422;2023-10-08T06:52:15;23.10;63.40
17437;DHT22;73152;52.198;5.422;2023-10-08T06:54:45;23.40;62.20
17437;DHT22;73152;52.198;5.422;2023-10-08T06:57:16;23.60;61.50
17437;DHT22;73152;52.198;5.422;2023-10-08T06:59:46;23.80;60.80
17437;DHT22;73152;52.198;5.422;2023-10-08T07:02:16;23.80;60.40
17437;DHT22;73152;52.198;5.422;2023-10-08T07:04:44;23.90;60.00
17437;DHT22;73152;52.198;5.422;2023-10-08T07:07:16;24.00;59.70
17437;DHT22;73152;52.198;5.422;2023-10-08T07:09:45;24.00;59.40
17437;DHT22;73152;52.198;5.422;2023-10-08T07:12:16;24.00;59.10
17437;DHT22;73152;52.198;5.422;2023-10-08T07:14:50;24.10;58.80
17437;DHT22;73152;52.198;5.422;2023-10-08T07:17:20;24.10;58.60
17437;DHT22;73152;52.198;5.422;2023-10-08T07:19:53;24.20;58.50
17437;DHT22;73152;52.198;5.422;2023-10-08T07:22:26;24.20;58.30
17437;DHT22;73152;52.198;5.422;2023-10-08T07:24:56;24.20;58.10
17437;DHT22;73152;52.198;5.422;2023-10-08T07:27:25;24.20;57.90
17437;DHT22;73152;52.198;5.422;2023-10-08T07:30:04;24.20;57.70
17437;DHT22;73152;52.198;5.422;2023-10-08T07:32:36;24.30;57.40
17437;DHT22;73152;52.198;5.422;2023-10-08T07:35:06;24.30;57.20
17437;DHT22;73152;52.198;5.422;2023-10-08T07:37:51;24.30;56.90
17437;DHT22;73152;52.198;5.422;2023-10-08T07:40:22;24.40;56.70
17437;DHT22;73152;52.198;5.422;2023-10-08T07:42:54;24.50;55.50
17437;DHT22;73152;52.198;5.422;2023-10-08T07:45:25;24.40;56.10
17437;DHT22;73152;52.198;5.422;2023-10-08T07:47:54;24.50;56.10
17437;DHT22;73152;52.198;5.422;2023-10-08T07:50:24;24.40;55.80
17437;DHT22;73152;52.198;5.422;2023-10-08T07:52:57;24.40;55.90
17437;DHT22;73152;52.198;5.422;2023-10-08T07:55:26;24.40;56.00
17437;DHT22;73152;52.198;5.422;2023-10-08T07:57:58;24.50;55.80
17437;DHT22;73152;52.198;5.422;2023-10-08T08:00:29;24.50;55.50
17437;DHT22;73152;52.198;5.422;2023-10-08T08:03:04;24.60;55.00
17437;DHT22;73152;52.198;5.422;2023-10-08T08:05:33;24.70;54.90
17437;DHT22;73152;52.198;5.422;2023-10-08T08:08:06;24.70;54.70
17437;DHT22;73152;52.198;5.422;2023-10-08T08:10:35;24.70;54.60
17437;DHT22;73152;52.198;5.422;2023-10-08T08:13:04;24.60;54.70
17437;DHT22;73152;52.198;5.422;2023-10-08T08:15:35;24.60;52.90
17437;DHT22;73152;52.198;5.422;2023-10-08T08:18:08;24.60;54.70
17437;DHT22;73152;52.198;5.422;2023-10-08T08:20:48;24.30;55.40
17437;DHT22;73152;52.198;5.422;2023-10-08T08:23:21;24.50;54.80
17437;DHT22;73152;52.198;5.422;2023-10-08T08:25:50;24.70;54.40
17437;DHT22;73152;52.198;5.422;2023-10-08T08:28:32;24.80;54.10
17437;DHT22;73152;52.198;5.422;2023-10-08T08:31:02;24.70;53.70
17437;DHT22;73152;52.198;5.422;2023-10-08T08:33:39;24.70;53.60
17437;DHT22;73152;52.198;5.422;2023-10-08T08:36:23;24.80;53.50
17437;DHT22;73152;52.198;5.422;2023-10-08T08:38:55;24.50;51.50
17437;DHT22;73152;52.198;5.422;2023-10-08T08:41:24;24.40;53.90
17437;DHT22;73152;52.198;5.422;2023-10-08T08:43:54;24.50;53.70
17437;DHT22;73152;52.198;5.422;2023-10-08T08:46:31;24.40;53.90
17437;DHT22;73152;52.198;5.422;2023-10-08T08:49:03;24.40;54.00
17437;DHT22;73152;52.198;5.422;2023-10-08T08:51:34;24.30;54.80
17437;DHT22;73152;52.198;5.422;2023-10-08T08:54:08;24.20;55.10
17437;DHT22;73152;52.198;5.422;2023-10-08T08:56:41;24.20;55.10
17437;DHT22;73152;52.198;5.422;2023-10-08T08:59:11;24.20;55.10
17437;DHT22;73152;52.198;5.422;2023-10-08T09:01:43;24.30;55.10
17437;DHT22;73152;52.198;5.422;2023-10-08T09:04:13;24.30;54.60
17437;DHT22;73152;52.198;5.422;2023-10-08T09:06:43;24.40;54.00
17437;DHT22;73152;52.198;5.422;2023-10-08T09:09:14;24.40;53.70
17437;DHT22;73152;52.198;5.422;2023-10-08T09:11:52;24.50;53.00
17437;DHT22;73152;52.198;5.422;2023-10-08T09:14:24;24.60;52.60
17437;DHT22;73152;52.198;5.422;2023-10-08T09:16:56;24.70;52.00
17437;DHT22;73152;52.198;5.422;2023-10-08T09:19:25;24.60;51.70
17437;DHT22;73152;52.198;5.422;2023-10-08T09:22:02;24.60;51.60
17437;DHT22;73152;52.198;5.422;2023-10-08T09:24:36;24.60;53.40
17437;DHT22;73152;52.198;5.422;2023-10-08T09:27:07;24.60;53.40
17437;DHT22;73152;52.198;5.422;2023-10-08T09:29:39;24.60;53.40
17437;DHT22;73152;52.198;5.422;2023-10-08T09:32:10;24.50;53.30
17437;DHT22;73152;52.198;5.422;2023-10-08T09:34:39;24.50;53.60
17437;DHT22;73152;52.198;5.422;2023-10-08T09:37:09;24.50;53.20
17437;DHT22;73152;52.198;5.422;2023-10-08T09:39:42;24.50;53.40
17437;DHT22;73152;52.198;5.422;2023-10-08T09:42:12;24.60;53.10
17437;DHT22;73152;52.198;5.422;2023-10-08T09:44:41;24.70;53.10
17437;DHT22;73152;52.198;5.422;2023-10-08T09:47:12;24.80;52.50
17437;DHT22;73152;52.198;5.422;2023-10-08T09:49:53;24.80;52.40
17437;DHT22;73152;52.198;5.422;2023-10-08T09:52:37;24.80;52.70
17437;DHT22;73152;52.198;5.422;2023-10-08T09:55:27;25.00;52.30
17437;DHT22;73152;52.198;5.422;2023-10-08T09:57:57;24.90;52.20
17437;DHT22;73152;52.198;5.422;2023-10-08T10:00:27;24.70;51.80
17437;DHT22;73152;52.198;5.422;2023-10-08T10:02:59;24.60;52.00
17437;DHT22;73152;52.198;5.422;2023-10-08T10:05:31;24.50;52.30
17437;DHT22;73152;52.198;5.422;2023-10-08T10:08:02;24.80;51.70
17437;DHT22;73152;52.198;5.422;2023-10-08T10:10:38;24.80;51.60
17437;DHT22;73152;52.198;5.422;2023-10-08T10:13:11;24.90;50.50
17437;DHT22;73152;52.198;5.422;2023-10-08T10:15:42;24.90;51.00
17437;DHT22;73152;52.198;5.422;2023-10-08T10:18:13;24.70;51.20
17437;DHT22;73152;52.198;5.422;2023-10-08T10:20:45;24.80;51.10
17437;DHT22;73152;52.198;5.422;2023-10-08T10:23:35;24.90;51.00
17437;DHT22;73152;52.198;5.422;2023-10-08T10:26:21;24.80;51.00
17437;DHT22;73152;52.198;5.422;2023-10-08T10:29:22;24.80;51.20
17437;DHT22;73152;52.198;5.422;2023-10-08T10:31:53;24.80;51.30
17437;DHT22;73152;52.198;5.422;2023-10-08T10:34:25;24.90;51.00
17437;DHT22;73152;52.198;5.422;2023-10-08T10:36:57;24.90;51.10
17437;DHT22;73152;52.198;5.422;2023-10-08T10:39:34;24.90;50.70
17437;DHT22;73152;52.198;5.422;2023-10-08T10:42:08;24.80;51.00
17437;DHT22;73152;52.198;5.422;2023-10-08T10:44:46;24.60;51.20
17437;DHT22;73152;52.198;5.422;2023-10-08T10:47:19;24.80;51.20
17437;DHT22;73152;52.198;5.422;2023-10-08T10:50:08;24.80;50.70
17437;DHT22;73152;52.198;5.422;2023-10-08T10:52:57;24.80;51.20
17437;DHT22;73152;52.198;5.422;2023-10-08T10:55:35;24.80;50.80
17437;DHT22;73152;52.198;5.422;2023-10-08T10:58:05;24.70;51.10
17437;DHT22;73152;52.198;5.422;2023-10-08T11:00:42;25.00;50.70
17437;DHT22;73152;52.198;5.422;2023-10-08T11:03:22;25.00;50.40
17437;DHT22;73152;52.198;5.422;2023-10-08T11:05:57;25.00;50.30
17437;DHT22;73152;52.198;5.422;2023-10-08T11:08:32;25.00;50.40
17437;DHT22;73152;52.198;5.422;2023-10-08T11:11:02;25.00;50.30
17437;DHT22;73152;52.198;5.422;2023-10-08T11:13:38;24.90;50.30
17437;DHT22;73152;52.198;5.422;2023-10-08T11:16:08;25.00;50.20
17437;DHT22;73152;52.198;5.422;2023-10-08T11:18:43;25.00;50.00
17437;DHT22;73152;52.198;5.422;2023-10-08T11:21:15;25.10;50.00
17437;DHT22;73152;52.198;5.422;2023-10-08T11:23:49;25.00;50.10
17437;DHT22;73152;52.198;5.422;2023-10-08T11:26:25;24.80;50.40
17437;DHT22;73152;52.198;5.422;2023-10-08T11:29:07;24.80;50.60
17437;DHT22;73152;52.198;5.422;2023-10-08T11:31:42;24.90;50.20
17437;DHT22;73152;52.198;5.422;2023-10-08T11:34:11;24.90;50.20
17437;DHT22;73152;52.198;5.422;2023-10-08T11:36:45;24.80;51.10
17437;DHT22;73152;52.198;5.422;2023-10-08T11:39:21;25.00;50.80
17437;DHT22;73152;52.198;5.422;2023-10-08T11:41:57;24.90;51.00
17437;DHT22;73152;52.198;5.422;2023-10-08T11:44:31;25.00;50.80
17437;DHT22;73152;52.198;5.422;2023-10-08T11:47:02;25.10;50.80
17437;DHT22;73152;52.198;5.422;2023-10-08T11:49:38;24.90;51.30
17437;DHT22;73152;52.198;5.422;2023-10-08T11:52:12;24.80;51.50
17437;DHT22;73152;52.198;5.422;2023-10-08T11:54:42;24.90;51.40
17437;DHT22;73152;52.198;5.422;2023-10-08T11:57:12;24.80;51.60
17437;DHT22;73152;52.198;5.422;2023-10-08T11:59:47;24.90;51.30
17437;DHT22;73152;52.198;5.422;2023-10-08T12:02:19;24.60;52.00
17437;DHT22;73152;52.198;5.422;2023-10-08T12:04:48;24.60;52.00
17437;DHT22;73152;52.198;5.422;2023-10-08T12:07:17;24.50;52.20
17437;DHT22;73152;52.198;5.422;2023-10-08T12:09:48;24.70;51.80
17437;DHT22;73152;52.198;5.422;2023-10-08T12:12:19;24.80;51.50
17437;DHT22;73152;52.198;5.422;2023-10-08T12:14:51;24.80;51.40
17437;DHT22;73152;52.198;5.422;2023-10-08T12:17:20;24.80;51.40
17437;DHT22;73152;52.198;5.422;2023-10-08T12:20:03;24.70;51.40
17437;DHT22;73152;52.198;5.422;2023-10-08T12:22:48;24.70;51.60
17437;DHT22;73152;52.198;5.422;2023-10-08T12:25:17;24.70;51.60
17437;DHT22;73152;52.198;5.422;2023-10-08T12:27:46;24.80;51.40
17437;DHT22;73152;52.198;5.422;2023-10-08T12:30:18;24.70;51.70
17437;DHT22;73152;52.198;5.422;2023-10-08T12:32:56;24.80;51.60
17437;DHT22;73152;52.198;5.422;2023-10-08T12:35:25;24.80;51.50
17437;DHT22;73152;52.198;5.422;2023-10-08T12:37:55;24.80;51.40
17437;DHT22;73152;52.198;5.422;2023-10-08T12:40:24;24.70;51.90
17437;DHT22;73152;52.198;5.422;2023-10-08T12:43:07;24.60;51.90
17437;DHT22;73152;52.198;5.422;2023-10-08T12:45:39;24.60;51.90
17437;DHT22;73152;52.198;5.422;2023-10-08T12:48:10;24.60;51.70
17437;DHT22;73152;52.198;5.422;2023-10-08T12:50:39;24.70;51.70
17437;DHT22;73152;52.198;5.422;2023-10-08T12:53:10;24.80;51.50
17437;DHT22;73152;52.198;5.422;2023-10-08T12:55:41;24.80;51.60
17437;DHT22;73152;52.198;5.422;2023-10-08T12:58:12;24.70;51.70
17437;DHT22;73152;52.198;5.422;2023-10-08T13:00:44;24.70;51.90
17437;DHT22;73152;52.198;5.422;2023-10-08T13:03:23;24.70;52.00
17437;DHT22;73152;52.198;5.422;2023-10-08T13:05:57;24.50;52.20
17437;DHT22;73152;52.198;5.422;2023-10-08T13:08:29;24.50;52.30
17437;DHT22;73152;52.198;5.422;2023-10-08T13:10:59;24.60;52.20
17437;DHT22;73152;52.198;5.422;2023-10-08T13:13:29;24.60;52.10
17437;DHT22;73152;52.198;5.422;2023-10-08T13:16:01;24.50;52.30
17437;DHT22;73152;52.198;5.422;2023-10-08T13:18:33;24.50;52.30
17437;DHT22;73152;52.198;5.422;2023-10-08T13:21:03;24.60;52.00
17437;DHT22;73152;52.198;5.422;2023-10-08T13:23:33;24.50;52.30
17437;DHT22;73152;52.198;5.422;2023-10-08T13:26:02;24.40;52.60
17437;DHT22;73152;52.198;5.422;2023-10-08T13:28:33;24.30;52.80
17437;DHT22;73152;52.198;5.422;2023-10-08T13:31:05;24.40;52.30
17437;DHT22;73152;52.198;5.422;2023-10-08T13:33:39;24.50;52.30
17437;DHT22;73152;52.198;5.422;2023-10-08T13:36:10;24.30;52.50
17437;DHT22;73152;52.198;5.422;2023-10-08T13:38:40;24.30;52.50
17437;DHT22;73152;52.198;5.422;2023-10-08T13:41:09;24.30;52.50
17437;DHT22;73152;52.198;5.422;2023-10-08T13:43:45;24.30;52.50
17437;DHT22;73152;52.198;5.422;2023-10-08T13:46:20;24.30;52.40
17437;DHT22;73152;52.198;5.422;2023-10-08T13:48:51;24.40;52.10
17437;DHT22;73152;52.198;5.422;2023-10-08T13:51:21;24.40;52.00
17437;DHT22;73152;52.198;5.422;2023-10-08T13:53:52;24.40;52.00
17437;DHT22;73152;52.198;5.422;2023-10-08T13:56:25;24.40;52.10
17437;DHT22;73152;52.198;5.422;2023-10-08T13:58:57;24.30;52.00
17437;DHT22;73152;52.198;5.422;2023-10-08T14:01:33;24.30;52.00
17437;DHT22;73152;52.198;5.422;2023-10-08T14:04:04;24.30;52.00
17437;DHT22;73152;52.198;5.422;2023-10-08T14:06:35;24.40;51.80
17437;DHT22;73152;52.198;5.422;2023-10-08T14:09:13;24.40;51.70
17437;DHT22;73152;52.198;5.422;2023-10-08T14:11:47;24.50;51.60
17437;DHT22;73152;52.198;5.422;2023-10-08T14:14:18;24.50;51.50
17437;DHT22;73152;52.198;5.422;2023-10-08T14:16:52;24.60;51.40
17437;DHT22;73152;52.198;5.422;2023-10-08T14:19:25;24.50;51.60
17437;DHT22;73152;52.198;5.422;2023-10-08T14:22:04;24.50;51.50
17437;DHT22;73152;52.198;5.422;2023-10-08T14:24:34;24.50;51.50
17437;DHT22;73152;52.198;5.422;2023-10-08T14:27:03;24.50;51.00
17437;DHT22;73152;52.198;5.422;2023-10-08T14:29:36;24.40;51.80
17437;DHT22;73152;52.198;5.422;2023-10-08T14:32:08;24.30;52.00
17437;DHT22;73152;52.198;5.422;2023-10-08T14:34:38;24.30;53.40
17437;DHT22;73152;52.198;5.422;2023-10-08T14:37:19;24.30;52.90
17437;DHT22;73152;52.198;5.422;2023-10-08T14:40:01;24.30;52.80
17437;DHT22;73152;52.198;5.422;2023-10-08T14:42:42;24.40;52.60
17437;DHT22;73152;52.198;5.422;2023-10-08T14:45:26;24.30;52.60
17437;DHT22;73152;52.198;5.422;2023-10-08T14:47:59;24.30;52.60
17437;DHT22;73152;52.198;5.422;2023-10-08T14:50:31;24.40;52.70
17437;DHT22;73152;52.198;5.422;2023-10-08T14:53:00;24.40;52.50
17437;DHT22;73152;52.198;5.422;2023-10-08T14:55:31;24.40;52.50
17437;DHT22;73152;52.198;5.422;2023-10-08T14:58:01;24.50;52.50
17437;DHT22;73152;52.198;5.422;2023-10-08T15:00:34;24.50;52.40
17437;DHT22;73152;52.198;5.422;2023-10-08T15:03:07;24.60;52.30
17437;DHT22;73152;52.198;5.422;2023-10-08T15:05:37;24.60;52.20
17437;DHT22;73152;52.198;5.422;2023-10-08T15:08:07;24.60;52.40
17437;DHT22;73152;52.198;5.422;2023-10-08T15:10:40;24.50;52.30
17437;DHT22;73152;52.198;5.422;2023-10-08T15:13:11;24.50;52.30
17437;DHT22;73152;52.198;5.422;2023-10-08T15:15:41;24.60;52.30
17437;DHT22;73152;52.198;5.422;2023-10-08T15:18:13;24.50;52.20
17437;DHT22;73152;52.198;5.422;2023-10-08T15:20:44;24.50;52.30
17437;DHT22;73152;52.198;5.422;2023-10-08T15:23:13;24.50;52.30
17437;DHT22;73152;52.198;5.422;2023-10-08T15:25:42;24.50;52.40
17437;DHT22;73152;52.198;5.422;2023-10-08T15:28:11;24.50;52.30
17437;DHT22;73152;52.198;5.422;2023-10-08T15:30:40;24.50;52.30
17437;DHT22;73152;52.198;5.422;2023-10-08T15:33:13;24.40;52.40
17437;DHT22;73152;52.198;5.422;2023-10-08T15:35:43;24.40;52.50
17437;DHT22;73152;52.198;5.422;2023-10-08T15:38:12;24.40;52.50
17437;DHT22;73152;52.198;5.422;2023-10-08T15:40:41;24.40;52.50
17437;DHT22;73152;52.198;5.422;2023-10-08T15:43:10;24.40;52.60
17437;DHT22;73152;52.198;5.422;2023-10-08T15:45:39;24.30;52.70
17437;DHT22;73152;52.198;5.422;2023-10-08T15:48:08;24.30;52.70
17437;DHT22;73152;52.198;5.422;2023-10-08T15:50:39;24.30;52.90
17437;DHT22;73152;52.198;5.422;2023-10-08T15:53:08;24.30;53.00
17437;DHT22;73152;52.198;5.422;2023-10-08T15:55:38;24.30;52.90
17437;DHT22;73152;52.198;5.422;2023-10-08T15:58:08;24.30;53.00
17437;DHT22;73152;52.198;5.422;2023-10-08T16:00:37;24.30;53.00
17437;DHT22;73152;52.198;5.422;2023-10-08T16:03:05;24.20;53.20
17437;DHT22;73152;52.198;5.422;2023-10-08T16:05:35;24.20;53.40
17437;DHT22;73152;52.198;5.422;2023-10-08T16:08:07;24.10;53.50
17437;DHT22;73152;52.198;5.422;2023-10-08T16:10:36;24.20;53.50
17437;DHT22;73152;52.198;5.422;2023-10-08T16:13:05;24.20;53.60